createdAt,value
2022-10-31T00:01:38.523Z,20.90
2022-10-31T00:04:06.364Z,19.20
2022-10-31T00:06:33.525Z,18.40
2022-10-31T00:09:03.597Z,19.00
2022-10-31T00:11:30.843Z,18.97
2022-10-31T00:14:01.011Z,19.40
2022-10-31T00:16:29.275Z,19.00
2022-10-31T00:18:59.960Z,19.40
2022-10-31T00:21:27.800Z,18.53
2022-10-31T00:23:54.850Z,18.87
2022-10-31T00:26:21.941Z,18.30
2022-10-31T00:28:49.537Z,19.57
2022-10-31T00:31:16.458Z,18.20
2022-10-31T00:33:43.921Z,18.13
2022-10-31T00:36:18.413Z,18.73
2022-10-31T00:38:47.110Z,18.97
2022-10-31T00:41:17.329Z,18.93
2022-10-31T00:43:44.769Z,17.67
2022-10-31T00:46:13.369Z,18.97
2022-10-31T00:48:40.524Z,18.63
2022-10-31T00:51:07.457Z,18.23
2022-10-31T00:53:34.501Z,19.37
2022-10-31T00:56:02.126Z,18.57
2022-10-31T00:58:29.038Z,18.33
2022-10-31T01:00:56.623Z,19.87
2022-10-31T01:03:26.589Z,18.73
2022-10-31T01:06:09.865Z,18.40
2022-10-31T01:08:37.940Z,18.40
2022-10-31T01:11:18.977Z,18.30
2022-10-31T01:13:46.933Z,17.27
2022-10-31T01:16:18.095Z,19.83
2022-10-31T01:18:45.572Z,19.27
2022-10-31T01:21:17.449Z,17.87
2022-10-31T01:23:44.604Z,17.80
2022-10-31T01:26:17.110Z,17.73
2022-10-31T01:31:17.896Z,17.33
2022-10-31T01:33:45.153Z,18.47
2022-10-31T01:36:20.831Z,18.40
2022-10-31T01:38:49.516Z,18.30
2022-10-31T01:41:23.318Z,18.20
2022-10-31T01:43:53.149Z,17.33
2022-10-31T01:46:33.079Z,18.80
2022-10-31T01:49:05.239Z,18.93
2022-10-31T01:51:37.121Z,19.00
2022-10-31T01:54:09.518Z,16.90
2022-10-31T01:56:43.194Z,18.47
2022-10-31T01:59:13.173Z,17.60
2022-10-31T02:01:41.764Z,17.60
2022-10-31T02:04:08.997Z,18.13
2022-10-31T02:06:47.659Z,17.63
2022-10-31T02:09:16.198Z,18.17
2022-10-31T02:11:44.248Z,18.43
2022-10-31T02:14:11.585Z,17.20
2022-10-31T02:16:38.447Z,17.33
2022-10-31T02:19:12.251Z,19.00
2022-10-31T02:22:10.954Z,18.90
2022-10-31T02:25:04.414Z,17.37
2022-10-31T02:28:02.304Z,16.13
2022-10-31T02:30:46.110Z,16.60
2022-10-31T02:33:36.813Z,18.07
2022-10-31T02:36:36.627Z,15.53
2022-10-31T02:39:29.142Z,16.87
2022-10-31T02:42:16.038Z,16.03
2022-10-31T02:45:01.264Z,15.63
2022-10-31T02:47:39.101Z,16.63
2022-10-31T02:50:28.395Z,17.07
2022-10-31T02:52:55.344Z,19.07
2022-10-31T02:55:28.653Z,16.17
2022-10-31T02:58:06.506Z,16.20
2022-10-31T03:00:59.120Z,16.63
2022-10-31T03:03:55.507Z,17.30
2022-10-31T03:06:42.627Z,16.87
2022-10-31T03:09:18.322Z,16.67
2022-10-31T03:12:23.866Z,17.20
2022-10-31T03:15:09.756Z,15.30
2022-10-31T03:18:07.828Z,16.10
2022-10-31T03:21:03.149Z,16.13
2022-10-31T03:23:33.167Z,16.00
2022-10-31T03:26:03.607Z,15.30
2022-10-31T03:31:08.059Z,15.70
2022-10-31T03:33:38.245Z,16.13
2022-10-31T03:36:09.650Z,15.13
2022-10-31T03:38:38.515Z,17.67
2022-10-31T03:41:08.892Z,15.50
2022-10-31T03:43:43.989Z,13.70
2022-10-31T03:46:11.464Z,13.57
2022-10-31T03:48:38.931Z,15.43
2022-10-31T03:51:39.369Z,15.50
2022-10-31T03:54:45.726Z,13.87
2022-10-31T03:57:44.552Z,14.67
2022-10-31T04:00:16.161Z,15.40
2022-10-31T04:02:50.736Z,15.03
2022-10-31T04:05:19.490Z,14.97
2022-10-31T04:07:50.489Z,14.50
2022-10-31T04:10:18.325Z,13.83
2022-10-31T04:12:53.151Z,14.47
2022-10-31T04:15:21.391Z,14.53
2022-10-31T04:17:51.257Z,14.37
2022-10-31T04:20:19.415Z,14.77
2022-10-31T04:22:46.444Z,14.37
2022-10-31T04:25:13.618Z,15.83
2022-10-31T04:27:40.609Z,14.90
2022-10-31T04:30:08.442Z,14.77
2022-10-31T04:32:35.558Z,13.60
2022-10-31T04:35:02.444Z,15.13
2022-10-31T04:37:29.323Z,14.37
2022-10-31T04:39:56.203Z,14.30
2022-10-31T04:42:23.102Z,14.77
2022-10-31T04:44:50.020Z,13.40
2022-10-31T04:47:16.892Z,14.43
2022-10-31T04:49:43.797Z,14.23
2022-10-31T04:52:11.098Z,16.60
2022-10-31T04:54:38.028Z,13.67
2022-10-31T04:57:04.957Z,13.47
2022-10-31T04:59:31.866Z,15.30
2022-10-31T05:01:58.924Z,13.70
2022-10-31T05:04:25.872Z,13.57
2022-10-31T05:06:52.775Z,13.33
2022-10-31T05:09:19.642Z,14.87
2022-10-31T05:11:46.542Z,14.43
2022-10-31T05:14:13.418Z,13.20
2022-10-31T05:16:40.307Z,13.50
2022-10-31T05:19:07.467Z,14.17
2022-10-31T05:21:34.340Z,14.33
2022-10-31T05:24:02.140Z,14.10
2022-10-31T05:26:29.068Z,13.73
2022-10-31T05:29:02.889Z,14.80
2022-10-31T05:31:29.798Z,14.07
2022-10-31T05:33:56.646Z,14.40
2022-10-31T05:36:23.507Z,14.17
2022-10-31T05:38:50.371Z,13.90
2022-10-31T05:41:17.236Z,15.23
2022-10-31T05:43:44.129Z,13.30
2022-10-31T05:46:10.982Z,15.17
2022-10-31T05:48:37.842Z,14.10
2022-10-31T05:51:04.794Z,13.60
2022-10-31T05:53:31.673Z,13.63
2022-10-31T05:55:58.519Z,16.77
2022-10-31T05:58:25.399Z,15.23
2022-10-31T06:00:52.473Z,14.17
2022-10-31T06:03:19.386Z,14.13
2022-10-31T06:05:50.537Z,15.37
2022-10-31T06:08:20.966Z,19.40
2022-10-31T06:10:47.869Z,16.97
2022-10-31T06:13:14.733Z,17.13
2022-10-31T06:15:42.985Z,19.80
2022-10-31T06:18:10.251Z,19.50
2022-10-31T06:20:37.376Z,16.10
2022-10-31T06:23:05.212Z,14.40
2022-10-31T06:25:32.569Z,14.97
2022-10-31T06:27:59.695Z,16.00
2022-10-31T06:30:26.773Z,14.50
2022-10-31T06:32:53.906Z,14.00
2022-10-31T06:35:20.969Z,14.90
2022-10-31T06:37:55.187Z,13.70
2022-10-31T06:40:22.516Z,12.57
2022-10-31T06:42:58.957Z,14.03
2022-10-31T06:45:26.560Z,14.10
2022-10-31T06:48:17.917Z,13.13
2022-10-31T06:50:41.795Z,12.37
2022-10-31T06:55:37.537Z,10.90
2022-10-31T06:58:04.698Z,11.30
2022-10-31T07:00:32.883Z,12.27
2022-10-31T07:03:06.802Z,12.87
2022-10-31T07:05:33.825Z,11.27
2022-10-31T07:08:04.548Z,11.23
2022-10-31T07:10:37.289Z,11.30
2022-10-31T07:13:11.927Z,12.50
2022-10-31T07:15:40.835Z,11.13
2022-10-31T07:18:09.932Z,11.43
2022-10-31T07:20:37.022Z,11.03
2022-10-31T07:23:04.557Z,11.70
2022-10-31T07:25:31.751Z,11.33
2022-10-31T07:27:58.834Z,18.07
2022-10-31T07:30:25.954Z,27.13
2022-10-31T07:32:52.928Z,23.90
2022-10-31T07:35:24.776Z,13.13
2022-10-31T07:37:52.349Z,10.70
2022-10-31T07:40:20.559Z,12.20
2022-10-31T07:42:50.780Z,12.73
2022-10-31T07:45:21.172Z,11.57
2022-10-31T07:47:53.133Z,11.80
2022-10-31T07:50:26.879Z,11.10
2022-10-31T07:53:14.298Z,11.43
2022-10-31T07:55:41.799Z,13.03
2022-10-31T07:58:15.273Z,13.10
2022-10-31T08:00:45.729Z,13.37
2022-10-31T08:03:16.187Z,13.90
2022-10-31T08:05:43.299Z,14.50
2022-10-31T08:08:10.399Z,14.97
2022-10-31T08:10:37.930Z,14.93
2022-10-31T08:13:08.062Z,15.27
2022-10-31T08:15:38.849Z,15.37
2022-10-31T08:18:06.796Z,14.50
2022-10-31T08:20:34.095Z,15.23
2022-10-31T08:23:04.147Z,15.33
2022-10-31T08:25:37.434Z,16.57
2022-10-31T08:28:07.592Z,16.43
2022-10-31T08:30:37.230Z,17.43
2022-10-31T08:33:12.052Z,16.37
2022-10-31T08:35:39.188Z,17.77
2022-10-31T08:38:08.117Z,22.33
2022-10-31T08:40:36.500Z,35.40
2022-10-31T08:43:12.140Z,44.70
2022-10-31T08:45:39.115Z,18.37
2022-10-31T08:48:10.508Z,18.23
2022-10-31T08:50:38.168Z,16.87
2022-10-31T08:53:09.952Z,17.17
2022-10-31T08:55:38.600Z,17.70
2022-10-31T08:58:08.763Z,17.60
2022-10-31T09:00:36.440Z,15.07
2022-10-31T09:03:12.357Z,19.77
2022-10-31T09:05:39.683Z,17.50
2022-10-31T09:08:11.707Z,17.80
2022-10-31T09:10:42.396Z,15.67
2022-10-31T09:13:13.625Z,16.70
2022-10-31T09:15:44.643Z,18.73
2022-10-31T09:18:13.536Z,18.57
2022-10-31T09:20:42.470Z,18.43
2022-10-31T09:23:35.544Z,19.07
2022-10-31T09:26:03.122Z,22.33
2022-10-31T09:28:30.190Z,18.23
2022-10-31T09:30:57.047Z,17.90
2022-10-31T09:33:24.046Z,17.87
2022-10-31T09:35:51.273Z,18.77
2022-10-31T09:38:22.247Z,18.40
2022-10-31T09:41:04.433Z,18.63
2022-10-31T09:44:02.972Z,18.87
2022-10-31T09:47:00.914Z,18.67
2022-10-31T09:49:33.797Z,18.30
2022-10-31T09:52:33.382Z,19.43
2022-10-31T09:55:26.593Z,18.50
2022-10-31T09:57:54.562Z,20.37
2022-10-31T10:00:23.373Z,20.10
2022-10-31T10:03:14.684Z,19.47
2022-10-31T10:05:58.609Z,18.30
2022-10-31T10:08:31.724Z,20.70
2022-10-31T10:11:31.279Z,20.40
2022-10-31T10:14:22.676Z,18.40
2022-10-31T10:17:20.839Z,18.83
2022-10-31T10:20:12.749Z,17.40
2022-10-31T10:22:55.764Z,18.40
2022-10-31T10:25:36.166Z,19.47
2022-10-31T10:28:30.748Z,35.00
2022-10-31T10:31:07.772Z,27.23
2022-10-31T10:34:18.960Z,20.77
2022-10-31T10:37:17.922Z,19.10
2022-10-31T10:39:55.058Z,19.27
2022-10-31T10:42:44.613Z,20.67
2022-10-31T10:45:38.994Z,19.73
2022-10-31T10:48:34.168Z,20.23
2022-10-31T10:51:02.636Z,18.97
2022-10-31T10:54:09.565Z,19.07
2022-10-31T10:56:49.773Z,19.93
2022-10-31T10:59:22.093Z,21.43
2022-10-31T11:01:52.626Z,20.30
2022-10-31T11:04:37.217Z,20.33
2022-10-31T11:07:11.270Z,19.40
2022-10-31T11:09:39.060Z,20.87
2022-10-31T11:12:33.073Z,20.87
2022-10-31T11:15:16.758Z,22.10
2022-10-31T11:17:43.678Z,22.33
2022-10-31T11:20:16.371Z,21.30
2022-10-31T11:22:48.697Z,22.60
2022-10-31T11:25:23.804Z,20.63
2022-10-31T11:28:10.123Z,20.63
2022-10-31T11:31:14.190Z,21.87
2022-10-31T11:33:59.889Z,25.73
2022-10-31T11:36:31.549Z,40.30
2022-10-31T11:39:02.156Z,22.63
2022-10-31T11:41:39.490Z,22.17
2022-10-31T11:44:16.261Z,22.57
2022-10-31T11:46:53.084Z,24.07
2022-10-31T11:49:38.489Z,22.63
2022-10-31T11:52:23.292Z,23.97
2022-10-31T11:54:56.193Z,22.13
2022-10-31T11:57:34.941Z,22.60
2022-10-31T12:00:05.157Z,34.10
2022-10-31T12:02:32.616Z,45.10
2022-10-31T12:05:05.365Z,24.63
2022-10-31T12:07:32.559Z,24.43
2022-10-31T12:09:59.380Z,25.50
2022-10-31T12:12:53.545Z,25.37
2022-10-31T12:15:37.478Z,24.60
2022-10-31T12:18:42.593Z,24.13
2022-10-31T12:21:37.368Z,25.60
2022-10-31T12:24:14.632Z,23.53
2022-10-31T12:27:19.749Z,24.57
2022-10-31T12:30:04.305Z,24.40
2022-10-31T12:33:04.449Z,24.67
2022-10-31T12:36:02.805Z,24.67
2022-10-31T12:38:48.940Z,25.50
2022-10-31T12:41:39.971Z,25.63
2022-10-31T12:44:15.443Z,24.90
2022-10-31T12:47:46.838Z,26.40
2022-10-31T12:50:41.800Z,26.50
2022-10-31T12:53:45.315Z,26.03
2022-10-31T12:56:14.864Z,25.07
2022-10-31T12:59:05.703Z,24.67
2022-10-31T13:01:51.062Z,24.07
2022-10-31T13:04:44.336Z,24.17
2022-10-31T13:07:24.256Z,25.07
2022-10-31T13:10:06.933Z,23.40
2022-10-31T13:12:37.478Z,24.17
2022-10-31T13:15:23.349Z,24.67
2022-10-31T13:18:03.140Z,23.63
2022-10-31T13:20:40.150Z,25.30
2022-10-31T13:26:51.258Z,25.20
2022-10-31T13:30:03.482Z,24.80
2022-10-31T13:32:55.288Z,26.07
2022-10-31T13:35:58.351Z,24.50
2022-10-31T13:38:57.041Z,23.20
2022-10-31T13:41:45.046Z,25.60
2022-10-31T13:44:22.731Z,25.73
2022-10-31T13:46:49.637Z,26.13
2022-10-31T13:49:31.643Z,24.60
2022-10-31T13:52:10.423Z,27.00
2022-10-31T13:54:47.573Z,27.13
2022-10-31T13:57:23.072Z,25.03
2022-10-31T14:00:22.356Z,25.57
2022-10-31T14:02:57.058Z,27.20
2022-10-31T14:05:37.042Z,24.87
2022-10-31T14:08:07.383Z,27.50
2022-10-31T14:10:40.188Z,27.47
2022-10-31T14:13:25.632Z,26.30
2022-10-31T14:16:06.183Z,25.77
2022-10-31T14:18:38.493Z,29.07
2022-10-31T14:21:24.898Z,27.60
2022-10-31T14:23:55.667Z,27.17
2022-10-31T14:26:29.435Z,29.70
2022-10-31T14:29:21.526Z,31.77
2022-10-31T14:32:02.932Z,32.33
2022-10-31T14:34:57.642Z,34.70
2022-10-31T14:37:48.605Z,33.20
2022-10-31T14:40:26.194Z,34.73
2022-10-31T14:43:37.277Z,34.93
2022-10-31T14:46:44.129Z,36.00
2022-10-31T14:49:35.432Z,34.73
2022-10-31T14:52:02.944Z,37.00
2022-10-31T14:54:39.450Z,35.63
2022-10-31T14:57:19.879Z,34.80
2022-10-31T14:59:52.478Z,36.20
2022-10-31T15:02:43.921Z,35.20
2022-10-31T15:05:12.485Z,36.20
2022-10-31T15:07:54.256Z,35.03
2022-10-31T15:10:30.681Z,36.60
2022-10-31T15:13:10.112Z,37.30
2022-10-31T15:15:37.729Z,38.37
2022-10-31T15:18:06.552Z,37.97
2022-10-31T15:20:44.027Z,36.17
2022-10-31T15:23:31.394Z,39.93
2022-10-31T15:26:04.022Z,45.30
2022-10-31T15:28:32.208Z,39.70
2022-10-31T15:31:02.008Z,39.50
2022-10-31T15:33:45.224Z,37.83
2022-10-31T15:36:28.517Z,41.53
2022-10-31T15:38:58.592Z,42.63
2022-10-31T15:41:54.256Z,40.77
2022-10-31T15:44:43.216Z,40.30
2022-10-31T15:47:22.326Z,40.53
2022-10-31T15:49:57.055Z,42.37
2022-10-31T15:52:36.535Z,42.53
2022-10-31T15:55:22.923Z,41.77
2022-10-31T15:57:56.763Z,44.37
2022-10-31T16:00:34.479Z,41.60
2022-10-31T16:03:25.981Z,46.53
2022-10-31T16:06:20.709Z,43.53
2022-10-31T16:08:50.463Z,47.87
2022-10-31T16:11:24.686Z,45.57
2022-10-31T16:14:06.403Z,45.67
2022-10-31T16:16:40.998Z,47.10
2022-10-31T16:19:21.070Z,47.20
2022-10-31T16:21:53.045Z,47.00
2022-10-31T16:24:21.902Z,44.77
2022-10-31T16:27:16.859Z,48.50
2022-10-31T16:29:47.697Z,46.47
2022-10-31T16:33:00.100Z,64.13
2022-10-31T16:35:37.407Z,48.80
2022-10-31T16:38:06.225Z,49.20
2022-10-31T16:40:33.923Z,49.10
2022-10-31T16:43:02.267Z,51.20
2022-10-31T16:45:32.568Z,49.53
2022-10-31T16:48:11.610Z,51.80
2022-10-31T16:50:39.277Z,49.37
2022-10-31T16:53:13.838Z,52.70
2022-10-31T16:56:00.380Z,55.00
2022-10-31T16:58:35.838Z,52.80
2022-10-31T17:01:07.243Z,51.67
2022-10-31T17:03:34.418Z,51.30
2022-10-31T17:06:01.348Z,50.40
2022-10-31T17:08:28.204Z,54.10
2022-10-31T17:10:57.243Z,51.73
2022-10-31T17:13:31.013Z,53.80
2022-10-31T17:16:00.735Z,54.40
2022-10-31T17:18:28.277Z,57.17
2022-10-31T17:21:00.678Z,54.37
2022-10-31T17:23:28.845Z,50.20
2022-10-31T17:25:56.607Z,53.47
2022-10-31T17:28:23.556Z,55.63
2022-10-31T17:30:50.528Z,54.57
2022-10-31T17:33:18.039Z,55.33
2022-10-31T17:35:45.670Z,56.20
2022-10-31T17:38:13.308Z,56.90
2022-10-31T17:40:42.333Z,56.47
2022-10-31T17:43:10.648Z,50.57
2022-10-31T17:45:41.084Z,56.40
2022-10-31T17:48:11.383Z,50.80
2022-10-31T17:50:38.658Z,51.70
2022-10-31T17:53:05.584Z,51.70
2022-10-31T17:55:36.174Z,51.37
2022-10-31T17:58:05.135Z,52.27
2022-10-31T18:00:32.200Z,52.30
2022-10-31T18:02:59.459Z,51.27
2022-10-31T18:05:26.701Z,51.23
2022-10-31T18:07:53.578Z,47.53
2022-10-31T18:10:20.474Z,53.90
2022-10-31T18:12:48.779Z,51.30
2022-10-31T18:15:16.681Z,60.43
2022-10-31T18:17:44.253Z,54.10
2022-10-31T18:20:11.706Z,57.60
2022-10-31T18:22:38.678Z,56.50
2022-10-31T18:25:06.419Z,54.33
2022-10-31T18:27:33.297Z,52.93
2022-10-31T18:30:00.185Z,60.87
2022-10-31T18:32:27.099Z,60.70
2022-10-31T18:34:53.967Z,56.90
2022-10-31T18:37:20.831Z,57.93
2022-10-31T18:39:47.688Z,56.90
2022-10-31T18:42:14.752Z,57.37
2022-10-31T18:44:41.628Z,55.70
2022-10-31T18:47:08.619Z,52.63
2022-10-31T18:49:36.538Z,53.67
2022-10-31T18:52:04.685Z,54.77
2022-10-31T18:54:31.599Z,51.07
2022-10-31T18:56:58.457Z,51.33
2022-10-31T18:59:25.346Z,48.97
2022-10-31T19:01:52.400Z,49.53
2022-10-31T19:04:19.620Z,45.57
2022-10-31T19:06:46.496Z,47.00
2022-10-31T19:09:13.529Z,46.10
2022-10-31T19:11:40.452Z,45.20
2022-10-31T19:14:11.017Z,42.50
2022-10-31T19:16:37.957Z,46.93
2022-10-31T19:19:04.897Z,44.57
2022-10-31T19:21:32.408Z,43.93
2022-10-31T19:24:00.361Z,44.47
2022-10-31T19:26:28.265Z,41.87
2022-10-31T19:28:56.778Z,47.03
2022-10-31T19:31:24.592Z,41.70
2022-10-31T19:33:51.693Z,43.47
2022-10-31T19:36:20.409Z,44.37
2022-10-31T19:38:50.804Z,41.97
2022-10-31T19:41:23.612Z,42.13
2022-10-31T19:43:51.085Z,44.70
2022-10-31T19:46:22.945Z,42.67
2022-10-31T19:48:55.591Z,45.13
2022-10-31T19:51:22.523Z,43.00
2022-10-31T19:53:49.842Z,44.07
2022-10-31T19:56:20.132Z,44.87
2022-10-31T19:58:47.677Z,45.67
2022-10-31T20:01:20.340Z,43.90
2022-10-31T20:03:49.128Z,44.20
2022-10-31T20:06:31.912Z,46.10
2022-10-31T20:08:59.700Z,44.97
2022-10-31T20:11:28.614Z,45.13
2022-10-31T20:13:57.350Z,44.83
2022-10-31T20:16:25.526Z,45.27
2022-10-31T20:18:52.550Z,45.40
2022-10-31T20:21:26.524Z,42.57
2022-10-31T20:24:05.417Z,42.63
2022-10-31T20:26:33.727Z,44.93
2022-10-31T20:29:02.235Z,45.60
2022-10-31T20:31:34.860Z,45.53
2022-10-31T20:34:02.542Z,44.60
2022-10-31T20:36:30.851Z,44.17
2022-10-31T20:38:58.699Z,43.57
2022-10-31T20:41:26.370Z,47.27
2022-10-31T20:43:53.239Z,41.60
2022-10-31T20:46:25.847Z,45.20
2022-10-31T20:48:54.188Z,46.03
2022-10-31T20:51:25.240Z,44.03
2022-10-31T20:53:55.055Z,45.50
2022-10-31T20:56:24.551Z,41.80
2022-10-31T20:58:53.505Z,42.30
2022-10-31T21:01:22.761Z,45.30
2022-10-31T21:03:50.572Z,44.20
2022-10-31T21:06:19.174Z,41.97
2022-10-31T21:08:46.296Z,45.30
2022-10-31T21:11:21.191Z,42.47
2022-10-31T21:13:49.489Z,43.57
2022-10-31T21:16:23.201Z,40.60
2022-10-31T21:18:51.601Z,41.13
2022-10-31T21:21:32.668Z,41.63
2022-10-31T21:24:07.816Z,44.07
2022-10-31T21:26:42.153Z,40.20
2022-10-31T21:29:11.090Z,44.73
2022-10-31T21:31:39.454Z,44.27
2022-10-31T21:34:07.128Z,41.73
2022-10-31T21:36:35.572Z,42.13
2022-10-31T21:39:04.386Z,42.70
2022-10-31T21:41:31.417Z,42.50
2022-10-31T21:43:59.288Z,41.53
2022-10-31T21:46:31.946Z,41.20
2022-10-31T21:48:59.485Z,41.17
2022-10-31T21:51:29.671Z,39.33
2022-10-31T21:54:16.269Z,39.03
2022-10-31T21:56:43.887Z,39.97
2022-10-31T21:59:11.402Z,39.80
2022-10-31T22:01:38.987Z,39.67
2022-10-31T22:04:06.809Z,39.77
2022-10-31T22:06:34.130Z,37.90
2022-10-31T22:09:04.890Z,37.00
2022-10-31T22:11:31.888Z,39.20
2022-10-31T22:14:00.615Z,38.37
2022-10-31T22:16:29.815Z,38.50
2022-10-31T22:18:59.760Z,38.47
2022-10-31T22:21:28.383Z,37.03
2022-10-31T22:24:03.248Z,37.67
2022-10-31T22:26:32.909Z,40.80
2022-10-31T22:29:03.042Z,40.40
2022-10-31T22:31:31.799Z,39.90
2022-10-31T22:33:59.329Z,40.07
2022-10-31T22:36:29.072Z,39.37
2022-10-31T22:38:56.592Z,41.20
2022-10-31T22:41:27.332Z,37.13
2022-10-31T22:43:55.262Z,40.60
2022-10-31T22:46:33.802Z,41.50
2022-10-31T22:49:16.601Z,40.97
2022-10-31T22:51:44.445Z,41.60
2022-10-31T22:54:17.505Z,39.03
2022-10-31T22:56:44.928Z,40.33
2022-10-31T22:59:13.968Z,42.80
2022-10-31T23:01:41.775Z,43.70
2022-10-31T23:04:12.771Z,40.90
2022-10-31T23:06:40.212Z,42.00
2022-10-31T23:09:08.293Z,42.63
2022-10-31T23:11:38.747Z,42.40
2022-10-31T23:14:14.332Z,41.60
2022-10-31T23:16:52.906Z,43.50
2022-10-31T23:19:29.605Z,43.17
2022-10-31T23:22:01.984Z,39.90
2022-10-31T23:24:47.097Z,42.37
2022-10-31T23:27:19.600Z,43.00
2022-10-31T23:29:53.168Z,42.83
2022-10-31T23:32:28.284Z,42.67
2022-10-31T23:35:01.517Z,40.67
2022-10-31T23:37:31.886Z,43.43
2022-10-31T23:39:58.919Z,42.03
2022-10-31T23:42:27.474Z,40.00
2022-10-31T23:44:55.153Z,40.10
2022-10-31T23:47:22.428Z,39.77
2022-10-31T23:49:50.614Z,38.13
2022-10-31T23:52:18.812Z,38.87
2022-10-31T23:54:45.827Z,39.27
2022-10-31T23:57:14.689Z,37.07
2022-10-31T23:59:41.638Z,38.70
